Time;durP1;ratioP1;P1;durP2;ratioP2;P2;SDS_P1;SDS_P2;PMS_P1;PMS_P2;Temp;Humidity;BMP_temperature;BMP_pressure;BME280_temperature;BME280_humidity;BME280_pressure;Samples;Min_cycle;Max_cycle;Signal;HPM_P1;HPM_P2
2023/08/07 00:02:23;;;;;;;19.00;10.50;;;;;;;;;;5072378;28;20368;-70
2023/08/07 00:04:48;;;;;;;17.17;10.15;;;;;;;;;;5071792;28;20496;-70
2023/08/07 00:07:13;;;;;;;20.40;10.90;;;;;;;;;;5072149;28;20555;-71
2023/08/07 00:09:38;;;;;;;16.17;9.77;;;;;;;;;;5072026;28;20532;-71
2023/08/07 00:12:04;;;;;;;18.73;10.57;;;;;;;;;;5071784;28;20530;-71
2023/08/07 00:14:29;;;;;;;22.30;10.80;;;;;;;;;;5072239;28;20031;-71
2023/08/07 00:16:54;;;;;;;20.35;11.35;;;;;;;;;;5071757;28;20020;-71
2023/08/07 00:19:20;;;;;;;16.67;9.75;;;;;;;;;;5072261;28;20036;-71
2023/08/07 00:21:45;;;;;;;20.55;11.27;;;;;;;;;;5072351;28;20084;-70
2023/08/07 00:24:10;;;;;;;19.60;11.07;;;;;;;;;;5072141;28;20028;-71
2023/08/07 00:26:35;;;;;;;24.85;12.00;;;;;;;;;;5071535;28;20013;-71
2023/08/07 00:29:01;;;;;;;24.30;12.82;;;;;;;;;;5071998;28;20017;-70
2023/08/07 00:31:26;;;;;;;19.67;10.63;;;;;;;;;;5067621;28;20025;-71
2023/08/07 00:33:54;;;;;;;22.42;11.82;;;;;;;;;;5071684;28;20021;-70
2023/08/07 00:36:19;;;;;;;22.23;11.63;;;;;;;;;;5071935;28;20044;-70
2023/08/07 00:38:44;;;;;;;22.30;11.97;;;;;;;;;;5071723;28;20440;-70
2023/08/07 00:41:09;;;;;;;24.23;12.00;;;;;;;;;;5071985;28;20029;-70
2023/08/07 00:43:35;;;;;;;22.35;11.27;;;;;;;;;;5071559;28;20059;-70
2023/08/07 00:46:00;;;;;;;24.63;12.15;;;;;;;;;;5071906;28;20028;-70
2023/08/07 00:48:26;;;;;;;18.70;10.02;;;;;;;;;;5071303;28;20451;-64
2023/08/07 00:50:51;;;;;;;19.60;10.75;;;;;;;;;;5074990;28;20414;-66
2023/08/07 00:53:17;;;;;;;21.67;11.57;;;;;;;;;;5071968;28;20473;-64
2023/08/07 00:55:42;;;;;;;20.05;10.40;;;;;;;;;;5071127;28;20032;-65
2023/08/07 00:58:07;;;;;;;21.13;10.55;;;;;;;;;;5071577;28;20469;-64
2023/08/07 01:03:36;;;;;;;22.10;11.20;;;;;;;;;;5071668;28;20365;-70
2023/08/07 01:06:01;;;;;;;18.98;9.68;;;;;;;;;;5075471;28;20028;-69
2023/08/07 01:08:27;;;;;;;22.83;10.45;;;;;;;;;;5075901;28;20028;-70
2023/08/07 01:11:10;;;;;;;20.02;9.43;;;;;;;;;;5079689;28;20059;-69
2023/08/07 01:13:55;;;;;;;18.65;8.43;;;;;;;;;;5074080;28;20024;-70
2023/08/07 01:16:25;;;;;;;23.17;11.48;;;;;;;;;;5075310;28;20418;-70
2023/08/07 01:18:50;;;;;;;21.45;9.60;;;;;;;;;;5074848;28;20020;-69
2023/08/07 01:21:19;;;;;;;20.38;10.30;;;;;;;;;;5079689;28;20073;-69
2023/08/07 01:23:47;;;;;;;22.98;11.43;;;;;;;;;;5075146;28;20154;-69
2023/08/07 01:26:13;;;;;;;27.83;11.32;;;;;;;;;;5075206;28;20384;-69
2023/08/07 01:28:45;;;;;;;21.70;10.63;;;;;;;;;;5075418;28;20021;-69
2023/08/07 01:31:14;;;;;;;20.23;10.85;;;;;;;;;;5075361;28;20033;-70
2023/08/07 01:34:08;;;;;;;23.25;11.20;;;;;;;;;;5075224;28;20078;-70
2023/08/07 01:36:33;;;;;;;21.55;10.77;;;;;;;;;;5072477;28;20480;-70
2023/08/07 01:38:59;;;;;;;21.33;10.77;;;;;;;;;;5074856;28;20111;-70
2023/08/07 01:41:25;;;;;;;17.75;10.43;;;;;;;;;;5074886;28;20028;-70
2023/08/07 01:43:51;;;;;;;24.33;11.07;;;;;;;;;;5074588;28;20028;-70
2023/08/07 01:46:16;;;;;;;20.35;11.07;;;;;;;;;;5069880;28;20021;-70
2023/08/07 01:48:41;;;;;;;20.77;10.98;;;;;;;;;;5076428;28;20025;-70
2023/08/07 01:51:06;;;;;;;18.98;10.13;;;;;;;;;;5074139;28;20020;-68
2023/08/07 01:53:32;;;;;;;22.50;10.27;;;;;;;;;;5065454;28;20381;-70
2023/08/07 01:55:57;;;;;;;25.23;11.07;;;;;;;;;;5073441;28;20029;-69
2023/08/07 01:58:22;;;;;;;20.42;10.48;;;;;;;;;;5075167;28;20016;-70
2023/08/07 02:00:47;;;;;;;24.60;11.02;;;;;;;;;;5076413;28;20040;-69
2023/08/07 02:03:13;;;;;;;25.48;11.30;;;;;;;;;;5073550;28;20021;-70
2023/08/07 02:05:38;;;;;;;20.50;10.20;;;;;;;;;;5074899;28;20052;-69
2023/08/07 02:08:03;;;;;;;20.05;9.10;;;;;;;;;;5073850;28;20033;-70
2023/08/07 02:10:28;;;;;;;23.92;11.02;;;;;;;;;;5075422;28;20460;-72
2023/08/07 02:12:54;;;;;;;24.83;11.88;;;;;;;;;;5075111;28;20063;-70
2023/08/07 02:15:19;;;;;;;26.00;11.70;;;;;;;;;;5076414;28;20032;-70
2023/08/07 02:17:44;;;;;;;23.80;11.18;;;;;;;;;;5074203;28;20025;-69
2023/08/07 02:20:10;;;;;;;23.88;11.00;;;;;;;;;;5076259;28;20553;-69
2023/08/07 02:22:35;;;;;;;22.05;11.13;;;;;;;;;;5074270;28;20017;-70
2023/08/07 02:25:00;;;;;;;23.15;12.02;;;;;;;;;;5073458;28;20078;-69
2023/08/07 02:27:26;;;;;;;18.45;10.15;;;;;;;;;;5065870;28;20027;-70
2023/08/07 02:29:51;;;;;;;22.52;11.93;;;;;;;;;;5076668;28;20028;-69
2023/08/07 02:32:16;;;;;;;20.95;11.38;;;;;;;;;;5074409;28;20027;-69
2023/08/07 02:34:41;;;;;;;22.80;11.80;;;;;;;;;;5072880;28;20093;-70
2023/08/07 02:37:07;;;;;;;22.38;12.10;;;;;;;;;;5077348;28;20072;-70
2023/08/07 02:39:32;;;;;;;23.40;12.32;;;;;;;;;;5075234;28;20090;-70
2023/08/07 02:41:57;;;;;;;20.75;11.25;;;;;;;;;;5073469;28;20111;-70
2023/08/07 02:44:22;;;;;;;25.60;12.57;;;;;;;;;;5074082;28;20099;-70
2023/08/07 02:46:48;;;;;;;21.38;11.50;;;;;;;;;;5077727;28;20170;-70
2023/08/07 02:49:13;;;;;;;19.02;10.88;;;;;;;;;;5076203;28;20025;-69
2023/08/07 02:51:38;;;;;;;23.10;12.70;;;;;;;;;;5066939;28;20043;-68
2023/08/07 02:54:03;;;;;;;23.10;11.75;;;;;;;;;;5060247;28;20487;-70
2023/08/07 02:56:29;;;;;;;21.77;12.18;;;;;;;;;;5075994;28;20028;-69
2023/08/07 02:58:54;;;;;;;28.38;12.90;;;;;;;;;;5064665;28;20109;-70
2023/08/07 03:01:21;;;;;;;23.20;12.43;;;;;;;;;;5073639;28;20026;-70
2023/08/07 03:03:46;;;;;;;22.15;12.05;;;;;;;;;;5072794;28;20508;-69
2023/08/07 03:06:11;;;;;;;23.77;12.77;;;;;;;;;;5071405;28;20033;-69
2023/08/07 03:08:36;;;;;;;25.98;12.55;;;;;;;;;;5076030;28;20039;-70
2023/08/07 03:11:02;;;;;;;20.25;11.23;;;;;;;;;;5073241;28;20099;-70
2023/08/07 03:13:27;;;;;;;26.43;12.17;;;;;;;;;;5076154;28;20031;-70
2023/08/07 03:15:59;;;;;;;23.80;12.37;;;;;;;;;;5072412;28;20083;-70
2023/08/07 03:18:25;;;;;;;24.35;12.88;;;;;;;;;;5075228;28;20448;-64
2023/08/07 03:20:50;;;;;;;26.42;12.68;;;;;;;;;;5072460;28;20036;-65
2023/08/07 03:23:15;;;;;;;25.17;12.20;;;;;;;;;;5076542;28;20494;-64
2023/08/07 03:25:40;;;;;;;25.17;12.57;;;;;;;;;;5063615;28;20064;-64
2023/08/07 03:28:06;;;;;;;24.98;12.23;;;;;;;;;;5066891;28;20021;-65
2023/08/07 03:30:31;;;;;;;21.83;11.75;;;;;;;;;;5075482;28;20074;-65
2023/08/07 03:32:56;;;;;;;22.42;11.27;;;;;;;;;;5069656;28;20028;-64
2023/08/07 03:35:21;;;;;;;20.40;11.10;;;;;;;;;;5069159;28;20035;-64
2023/08/07 03:37:46;;;;;;;23.55;11.63;;;;;;;;;;5075104;28;20033;-64
2023/08/07 03:40:12;;;;;;;23.63;12.00;;;;;;;;;;5069220;28;20388;-65
2023/08/07 03:42:37;;;;;;;21.02;12.10;;;;;;;;;;5070749;28;20435;-64
2023/08/07 03:45:02;;;;;;;18.50;11.20;;;;;;;;;;5072001;28;20478;-65
2023/08/07 03:47:27;;;;;;;21.42;11.88;;;;;;;;;;5073638;28;20096;-65
2023/08/07 03:49:53;;;;;;;19.13;11.05;;;;;;;;;;5076019;28;20059;-65
2023/08/07 03:52:18;;;;;;;21.60;11.60;;;;;;;;;;5075817;28;20031;-65
2023/08/07 03:54:43;;;;;;;21.20;11.13;;;;;;;;;;5070857;28;20062;-64
2023/08/07 03:57:10;;;;;;;22.58;11.48;;;;;;;;;;5066163;28;20024;-64
2023/08/07 03:59:35;;;;;;;24.53;11.87;;;;;;;;;;5062491;28;20048;-64
2023/08/07 04:02:00;;;;;;;21.83;11.52;;;;;;;;;;5075586;28;20480;-66
2023/08/07 04:04:25;;;;;;;19.92;11.32;;;;;;;;;;5075181;28;20127;-64
2023/08/07 04:06:50;;;;;;;17.90;10.57;;;;;;;;;;5073733;28;20040;-65
2023/08/07 04:09:16;;;;;;;18.58;10.80;;;;;;;;;;5070878;28;20048;-65
2023/08/07 04:11:42;;;;;;;21.30;10.57;;;;;;;;;;5073522;28;20032;-64
2023/08/07 04:14:07;;;;;;;17.35;9.63;;;;;;;;;;5071045;28;20024;-65
2023/08/07 04:16:32;;;;;;;19.50;9.25;;;;;;;;;;5076280;28;20507;-63
2023/08/07 04:18:58;;;;;;;18.50;9.60;;;;;;;;;;5071392;28;20472;-64
2023/08/07 04:21:23;;;;;;;16.60;9.45;;;;;;;;;;5071131;28;20369;-64
2023/08/07 04:23:48;;;;;;;26.60;10.52;;;;;;;;;;5074786;28;20020;-64
2023/08/07 04:26:14;;;;;;;18.60;9.93;;;;;;;;;;5070884;28;20099;-64
2023/08/07 04:28:39;;;;;;;19.67;9.80;;;;;;;;;;5070458;28;20024;-69
2023/08/07 04:31:04;;;;;;;18.92;10.15;;;;;;;;;;5052934;28;20029;-69
2023/08/07 04:33:30;;;;;;;18.20;10.32;;;;;;;;;;5068470;28;20016;-69
2023/08/07 04:35:55;;;;;;;16.58;8.93;;;;;;;;;;5074042;28;20025;-70
2023/08/07 04:38:20;;;;;;;19.33;9.45;;;;;;;;;;5072548;28;20031;-69
2023/08/07 04:40:46;;;;;;;14.45;9.30;;;;;;;;;;5081614;28;20020;-69
2023/08/07 04:43:12;;;;;;;15.75;9.05;;;;;;;;;;5079649;28;20028;-70
2023/08/07 04:45:39;;;;;;;14.25;8.25;;;;;;;;;;5068382;28;20025;-70
2023/08/07 04:48:04;;;;;;;13.60;8.55;;;;;;;;;;5076739;28;20032;-71
2023/08/07 04:50:29;;;;;;;15.05;8.60;;;;;;;;;;5078250;28;20465;-71
2023/08/07 04:52:55;;;;;;;18.10;8.98;;;;;;;;;;5079523;28;20078;-71
2023/08/07 04:55:20;;;;;;;17.63;7.90;;;;;;;;;;5078379;28;20095;-71
2023/08/07 04:57:46;;;;;;;13.85;8.18;;;;;;;;;;5077934;28;20051;-71
2023/08/07 05:00:11;;;;;;;14.02;7.88;;;;;;;;;;5077696;28;20020;-69
2023/08/07 05:02:37;;;;;;;13.35;7.05;;;;;;;;;;5079121;28;20013;-70
2023/08/07 05:05:02;;;;;;;14.50;7.55;;;;;;;;;;5075017;28;20053;-70
2023/08/07 05:07:28;;;;;;;15.30;7.53;;;;;;;;;;5072576;28;20051;-70
2023/08/07 05:09:54;;;;;;;15.98;7.90;;;;;;;;;;5077007;28;20028;-71
2023/08/07 05:12:19;;;;;;;13.80;7.68;;;;;;;;;;5078135;28;20103;-70
2023/08/07 05:14:44;;;;;;;15.07;7.45;;;;;;;;;;5059856;28;20020;-71
2023/08/07 05:17:09;;;;;;;14.50;8.23;;;;;;;;;;5075587;28;20023;-71
2023/08/07 05:19:35;;;;;;;13.50;6.72;;;;;;;;;;5071286;28;20083;-70
2023/08/07 05:22:00;;;;;;;11.23;6.70;;;;;;;;;;5076962;28;20044;-70
2023/08/07 05:24:25;;;;;;;11.55;6.95;;;;;;;;;;5079112;28;20016;-71
2023/08/07 05:26:50;;;;;;;13.45;6.00;;;;;;;;;;5083299;28;20016;-72
2023/08/07 05:29:15;;;;;;;12.73;6.75;;;;;;;;;;5078143;28;20074;-72
2023/08/07 05:31:41;;;;;;;11.25;6.50;;;;;;;;;;5077670;28;20016;-72
2023/08/07 05:34:06;;;;;;;10.70;6.55;;;;;;;;;;5077746;28;20066;-71
2023/08/07 05:36:32;;;;;;;11.93;6.22;;;;;;;;;;5077840;28;20161;-71
2023/08/07 05:38:58;;;;;;;11.25;5.43;;;;;;;;;;5078154;28;20027;-71
2023/08/07 05:41:23;;;;;;;10.30;5.18;;;;;;;;;;5078004;28;20025;-71
2023/08/07 05:43:48;;;;;;;15.05;5.30;;;;;;;;;;5065593;28;20492;-71
2023/08/07 05:46:13;;;;;;;9.88;5.20;;;;;;;;;;5077722;28;20016;-70
2023/08/07 05:48:39;;;;;;;10.32;5.35;;;;;;;;;;5077960;28;20025;-71
2023/08/07 05:51:04;;;;;;;10.40;4.70;;;;;;;;;;5074510;28;20443;-70
2023/08/07 05:53:29;;;;;;;13.93;4.93;;;;;;;;;;5073591;28;20032;-71
2023/08/07 05:55:54;;;;;;;9.73;4.22;;;;;;;;;;5073595;28;20042;-71
2023/08/07 05:58:20;;;;;;;10.55;4.47;;;;;;;;;;5075841;28;20025;-71
2023/08/07 06:00:46;;;;;;;19.25;5.03;;;;;;;;;;5074772;28;20052;-70
2023/08/07 06:03:11;;;;;;;9.27;4.50;;;;;;;;;;5081963;28;20476;-71
2023/08/07 06:05:36;;;;;;;6.97;3.35;;;;;;;;;;5074660;28;20432;-70
2023/08/07 06:08:01;;;;;;;8.18;3.97;;;;;;;;;;5073441;28;20546;-71
2023/08/07 06:10:27;;;;;;;8.77;3.88;;;;;;;;;;5070724;28;20538;-71
2023/08/07 06:12:52;;;;;;;11.60;4.22;;;;;;;;;;5055225;28;20031;-71
2023/08/07 06:15:17;;;;;;;8.10;3.63;;;;;;;;;;5070490;28;20042;-71
2023/08/07 06:17:42;;;;;;;10.52;3.75;;;;;;;;;;5073986;28;20017;-71
2023/08/07 06:20:09;;;;;;;7.80;3.60;;;;;;;;;;5073934;28;20078;-71
2023/08/07 06:22:34;;;;;;;10.23;2.90;;;;;;;;;;5073946;28;20114;-72
2023/08/07 06:24:59;;;;;;;9.48;2.75;;;;;;;;;;5073894;28;20443;-71
2023/08/07 06:27:25;;;;;;;11.32;3.30;;;;;;;;;;5073821;28;20020;-71
2023/08/07 06:29:50;;;;;;;9.05;3.03;;;;;;;;;;5073690;28;20012;-71
2023/08/07 06:32:17;;;;;;;7.55;2.53;;;;;;;;;;5072965;28;20043;-71
2023/08/07 06:34:42;;;;;;;9.75;3.05;;;;;;;;;;5072774;28;20024;-72
2023/08/07 06:37:08;;;;;;;7.28;2.70;;;;;;;;;;5072772;28;20342;-71
2023/08/07 06:39:33;;;;;;;7.18;2.40;;;;;;;;;;5072873;28;20428;-71
2023/08/07 06:42:00;;;;;;;5.80;2.55;;;;;;;;;;5072379;28;20720;-71
2023/08/07 06:44:25;;;;;;;9.75;2.40;;;;;;;;;;5072374;28;20027;-71
2023/08/07 06:46:50;;;;;;;12.00;3.25;;;;;;;;;;5078297;28;20016;-71
2023/08/07 06:49:15;;;;;;;9.05;2.50;;;;;;;;;;5073335;28;20047;-67
2023/08/07 06:51:40;;;;;;;10.65;2.40;;;;;;;;;;5073080;28;20017;-66
2023/08/07 06:54:06;;;;;;;5.97;2.17;;;;;;;;;;5073005;28;20021;-71
2023/08/07 06:56:31;;;;;;;8.20;2.42;;;;;;;;;;5073148;28;20017;-71
2023/08/07 06:58:56;;;;;;;6.85;2.60;;;;;;;;;;5073101;28;20079;-70
2023/08/07 07:01:21;;;;;;;7.63;2.30;;;;;;;;;;5073132;28;20013;-71
2023/08/07 07:03:52;;;;;;;6.68;2.03;;;;;;;;;;5072725;28;20056;-71
2023/08/07 07:06:17;;;;;;;7.45;2.65;;;;;;;;;;5073064;28;20016;-72
2023/08/07 07:08:42;;;;;;;7.47;2.47;;;;;;;;;;5073289;28;20031;-72
2023/08/07 07:11:08;;;;;;;7.47;2.58;;;;;;;;;;5076489;28;20016;-71
2023/08/07 07:13:33;;;;;;;6.25;2.40;;;;;;;;;;5073226;28;20017;-71
2023/08/07 07:15:59;;;;;;;5.30;2.47;;;;;;;;;;5054403;28;20444;-70
2023/08/07 07:18:24;;;;;;;10.70;2.83;;;;;;;;;;5073253;28;20012;-71
2023/08/07 07:20:57;;;;;;;9.07;2.90;;;;;;;;;;5072964;28;20425;-71
2023/08/07 07:23:22;;;;;;;13.90;3.15;;;;;;;;;;5072701;28;20020;-71
2023/08/07 07:25:47;;;;;;;9.52;2.85;;;;;;;;;;5072912;28;20033;-70
2023/08/07 07:28:13;;;;;;;13.93;3.35;;;;;;;;;;5072920;28;20029;-71
2023/08/07 07:30:39;;;;;;;7.93;2.53;;;;;;;;;;5071292;28;20062;-71
2023/08/07 07:33:04;;;;;;;11.80;2.80;;;;;;;;;;5072852;28;20021;-72
2023/08/07 07:35:30;;;;;;;10.18;2.40;;;;;;;;;;5076935;28;20030;-71
2023/08/07 07:37:55;;;;;;;8.13;2.58;;;;;;;;;;5072351;28;20066;-72
2023/08/07 07:40:21;;;;;;;10.93;2.58;;;;;;;;;;5072335;28;20073;-71
2023/08/07 07:42:46;;;;;;;10.20;2.60;;;;;;;;;;5072232;28;20063;-72
2023/08/07 07:45:11;;;;;;;11.68;2.50;;;;;;;;;;5072711;28;20027;-72
2023/08/07 07:47:36;;;;;;;8.57;2.40;;;;;;;;;;5072366;28;20162;-72
2023/08/07 07:50:07;;;;;;;9.98;2.45;;;;;;;;;;5072108;28;20024;-72
2023/08/07 07:52:32;;;;;;;12.10;2.53;;;;;;;;;;5072651;28;20069;-71
2023/08/07 07:54:57;;;;;;;12.20;2.92;;;;;;;;;;5072263;28;20472;-71
2023/08/07 07:57:23;;;;;;;11.43;2.50;;;;;;;;;;5072323;28;20013;-65
2023/08/07 07:59:48;;;;;;;8.27;2.17;;;;;;;;;;5072141;28;20099;-70
2023/08/07 08:02:15;;;;;;;9.30;2.08;;;;;;;;;;5072232;28;20465;-71
2023/08/07 08:04:41;;;;;;;10.15;2.78;;;;;;;;;;5071682;28;20048;-71
2023/08/07 08:07:06;;;;;;;8.90;2.10;;;;;;;;;;5071890;28;20016;-69
2023/08/07 08:09:31;;;;;;;9.38;2.10;;;;;;;;;;5071987;28;20052;-70
2023/08/07 08:11:56;;;;;;;10.10;2.40;;;;;;;;;;5071464;28;20024;-71
2023/08/07 08:14:21;;;;;;;12.10;2.67;;;;;;;;;;5071260;28;20017;-70
2023/08/07 08:16:47;;;;;;;10.70;2.50;;;;;;;;;;5072119;28;20036;-70
2023/08/07 08:19:13;;;;;;;10.23;2.50;;;;;;;;;;5072130;28;20021;-70
2023/08/07 08:21:39;;;;;;;15.77;3.22;;;;;;;;;;5072137;28;20417;-70
2023/08/07 08:24:04;;;;;;;19.42;3.60;;;;;;;;;;5072126;28;20021;-70
2023/08/07 08:26:29;;;;;;;12.60;2.47;;;;;;;;;;5071570;28;20111;-70
2023/08/07 08:28:54;;;;;;;7.32;2.13;;;;;;;;;;5071756;28;20100;-70
2023/08/07 08:31:21;;;;;;;8.98;2.40;;;;;;;;;;5071962;28;20020;-70
2023/08/07 08:33:46;;;;;;;8.52;2.00;;;;;;;;;;5072089;28;20583;-70
2023/08/07 08:36:11;;;;;;;9.48;2.22;;;;;;;;;;5071844;28;20096;-70
2023/08/07 08:38:37;;;;;;;11.75;2.00;;;;;;;;;;5071982;28;20008;-70
2023/08/07 08:41:03;;;;;;;7.50;2.00;;;;;;;;;;5078425;28;20017;-70
2023/08/07 08:43:29;;;;;;;7.63;1.90;;;;;;;;;;5071856;28;20562;-69
2023/08/07 08:45:54;;;;;;;9.85;2.15;;;;;;;;;;5071456;28;20099;-70
2023/08/07 08:48:23;;;;;;;6.68;1.80;;;;;;;;;;5070467;28;20100;-70
2023/08/07 08:50:50;;;;;;;7.65;1.52;;;;;;;;;;5071657;28;20663;-70
2023/08/07 08:53:15;;;;;;;8.60;1.85;;;;;;;;;;5071890;28;20024;-70
2023/08/07 08:55:43;;;;;;;8.80;1.98;;;;;;;;;;5071292;28;20358;-70
2023/08/07 08:58:08;;;;;;;7.38;1.90;;;;;;;;;;5071886;28;20086;-70
2023/08/07 09:00:34;;;;;;;6.05;1.58;;;;;;;;;;5071455;28;20053;-70
2023/08/07 09:03:01;;;;;;;7.00;1.85;;;;;;;;;;5070407;28;20028;-67
2023/08/07 09:05:27;;;;;;;8.18;1.95;;;;;;;;;;5071224;28;20044;-67
2023/08/07 09:07:52;;;;;;;14.65;2.20;;;;;;;;;;5071832;28;20028;-66
2023/08/07 09:10:18;;;;;;;8.25;1.95;;;;;;;;;;5071412;28;20024;-66
2023/08/07 09:12:54;;;;;;;6.25;1.70;;;;;;;;;;5071423;28;20027;-66
2023/08/07 09:15:19;;;;;;;6.13;1.60;;;;;;;;;;5053080;28;20060;-66
2023/08/07 09:17:46;;;;;;;9.27;1.80;;;;;;;;;;5075398;28;20044;-67
2023/08/07 09:20:13;;;;;;;8.68;2.10;;;;;;;;;;5071966;28;20456;-67
2023/08/07 09:22:42;;;;;;;6.68;1.70;;;;;;;;;;5071528;28;20040;-67
2023/08/07 09:25:09;;;;;;;10.82;2.10;;;;;;;;;;5071532;28;20430;-67
2023/08/07 09:27:36;;;;;;;10.32;2.20;;;;;;;;;;5074829;28;20021;-67
2023/08/07 09:30:02;;;;;;;6.75;1.70;;;;;;;;;;5074780;28;20469;-66
2023/08/07 09:32:27;;;;;;;8.40;1.75;;;;;;;;;;5074858;28;20100;-66
2023/08/07 09:34:53;;;;;;;7.45;2.10;;;;;;;;;;5075054;28;20052;-67
2023/08/07 09:37:18;;;;;;;8.88;1.88;;;;;;;;;;5073798;28;20020;-67
2023/08/07 09:39:43;;;;;;;5.70;1.60;;;;;;;;;;5074688;28;20008;-66
2023/08/07 09:42:15;;;;;;;6.60;1.80;;;;;;;;;;5074665;28;20036;-65
2023/08/07 09:44:40;;;;;;;11.48;2.30;;;;;;;;;;5074634;28;20021;-67
2023/08/07 09:47:13;;;;;;;8.52;1.88;;;;;;;;;;5074587;28;20040;-66
2023/08/07 09:49:38;;;;;;;9.35;1.70;;;;;;;;;;5074479;28;20035;-66
2023/08/07 09:52:06;;;;;;;9.35;2.03;;;;;;;;;;5074729;28;20017;-66
2023/08/07 09:54:32;;;;;;;9.30;1.77;;;;;;;;;;5074527;28;20460;-66
2023/08/07 09:56:57;;;;;;;12.45;1.77;;;;;;;;;;5074832;28;20025;-66
2023/08/07 09:59:22;;;;;;;8.30;1.70;;;;;;;;;;5074327;28;20469;-67
2023/08/07 10:01:48;;;;;;;7.50;1.90;;;;;;;;;;5074326;28;20022;-67
2023/08/07 10:04:15;;;;;;;7.80;1.80;;;;;;;;;;5073678;28;20120;-66
2023/08/07 10:06:41;;;;;;;9.50;1.80;;;;;;;;;;5074216;28;20016;-66
2023/08/07 10:09:07;;;;;;;7.07;1.73;;;;;;;;;;5074099;28;20350;-67
2023/08/07 10:11:32;;;;;;;8.32;1.60;;;;;;;;;;5074473;28;20040;-65
2023/08/07 10:13:58;;;;;;;7.00;1.55;;;;;;;;;;5074451;28;20721;-65
2023/08/07 10:16:24;;;;;;;7.22;1.60;;;;;;;;;;5073802;28;20104;-65
2023/08/07 10:18:49;;;;;;;10.32;1.70;;;;;;;;;;5073974;28;20469;-67
2023/08/07 10:21:15;;;;;;;6.97;1.70;;;;;;;;;;5074419;28;20439;-67
2023/08/07 10:23:40;;;;;;;8.07;1.88;;;;;;;;;;5074184;28;20373;-68
2023/08/07 10:26:08;;;;;;;9.63;1.90;;;;;;;;;;5074002;28;20491;-68
2023/08/07 10:28:37;;;;;;;8.40;2.00;;;;;;;;;;5074267;28;20017;-68
2023/08/07 10:31:03;;;;;;;6.82;1.70;;;;;;;;;;5074135;28;20380;-66
2023/08/07 10:33:29;;;;;;;9.73;1.95;;;;;;;;;;5073789;28;20025;-66
2023/08/07 10:35:54;;;;;;;6.80;1.60;;;;;;;;;;5073862;28;20029;-66
2023/08/07 10:38:22;;;;;;;10.45;2.30;;;;;;;;;;5073345;28;20095;-65
2023/08/07 10:41:01;;;;;;;9.75;1.98;;;;;;;;;;5073454;28;20024;-66
2023/08/07 10:43:27;;;;;;;7.75;1.77;;;;;;;;;;5073288;28;20024;-65
2023/08/07 10:45:53;;;;;;;11.25;2.05;;;;;;;;;;5073784;28;20077;-65
2023/08/07 10:48:18;;;;;;;9.38;2.30;;;;;;;;;;5073751;28;20095;-65
2023/08/07 10:50:57;;;;;;;7.93;2.20;;;;;;;;;;5077462;28;20021;-65
2023/08/07 10:53:28;;;;;;;8.85;2.03;;;;;;;;;;5073578;28;20802;-66
2023/08/07 10:55:57;;;;;;;7.30;1.83;;;;;;;;;;5072962;28;20017;-65
2023/08/07 10:58:29;;;;;;;11.68;2.10;;;;;;;;;;5073322;28;20119;-65
2023/08/07 11:01:12;;;;;;;8.05;2.08;;;;;;;;;;5073393;28;20066;-65
2023/08/07 11:03:40;;;;;;;8.38;2.78;;;;;;;;;;5072980;28;20009;-66
2023/08/07 11:06:05;;;;;;;9.00;2.10;;;;;;;;;;5073257;28;20035;-65
2023/08/07 11:08:30;;;;;;;8.18;1.70;;;;;;;;;;5073126;28;20464;-67
2023/08/07 11:10:57;;;;;;;7.20;1.70;;;;;;;;;;5073306;28;20027;-66
2023/08/07 11:13:23;;;;;;;8.70;1.80;;;;;;;;;;5073288;28;20055;-65
2023/08/07 11:15:49;;;;;;;7.82;1.90;;;;;;;;;;5075987;28;20526;-65
2023/08/07 11:18:14;;;;;;;9.77;1.90;;;;;;;;;;5072637;28;20008;-65
2023/08/07 11:20:39;;;;;;;7.10;1.52;;;;;;;;;;5072479;28;20024;-65
2023/08/07 11:23:06;;;;;;;5.55;1.58;;;;;;;;;;5073079;28;20021;-65
2023/08/07 11:25:31;;;;;;;7.53;1.70;;;;;;;;;;5072982;28;20017;-65
2023/08/07 11:27:56;;;;;;;8.48;2.05;;;;;;;;;;5072725;28;20027;-66
2023/08/07 11:30:21;;;;;;;11.02;2.13;;;;;;;;;;5072630;28;20074;-64
2023/08/07 11:32:46;;;;;;;6.70;1.73;;;;;;;;;;5072684;28;20036;-65
2023/08/07 11:35:12;;;;;;;8.75;1.92;;;;;;;;;;5072854;28;20104;-71
2023/08/07 11:37:44;;;;;;;7.13;1.70;;;;;;;;;;5075801;28;20035;-70
2023/08/07 11:40:11;;;;;;;10.18;1.83;;;;;;;;;;5073300;28;20005;-71
2023/08/07 11:42:36;;;;;;;8.07;1.75;;;;;;;;;;5072380;28;20021;-71
2023/08/07 11:45:02;;;;;;;6.57;1.92;;;;;;;;;;5072136;28;20043;-71
2023/08/07 11:47:27;;;;;;;9.32;2.20;;;;;;;;;;5072561;28;20024;-70
2023/08/07 11:49:53;;;;;;;6.03;1.48;;;;;;;;;;5071827;28;20059;-72
2023/08/07 11:52:18;;;;;;;8.52;2.10;;;;;;;;;;5072568;28;20028;-71
2023/08/07 11:54:46;;;;;;;8.20;2.00;;;;;;;;;;5071979;28;20554;-72
2023/08/07 11:57:17;;;;;;;9.48;2.20;;;;;;;;;;5072128;28;20023;-72
2023/08/07 11:59:43;;;;;;;;;;;;;;;;;;5072801;28;20020;-72
2023/08/07 12:02:11;;;;;;;6.93;1.75;;;;;;;;;;5072300;28;20280;-72
2023/08/07 12:04:37;;;;;;;7.70;1.80;;;;;;;;;;5067887;28;20299;-71
2023/08/07 12:07:02;;;;;;;10.73;2.40;;;;;;;;;;5072298;28;20103;-72
2023/08/07 12:09:27;;;;;;;9.32;2.38;;;;;;;;;;5071831;28;20023;-71
2023/08/07 12:11:59;;;;;;;11.60;2.70;;;;;;;;;;5071974;28;20012;-72
2023/08/07 12:14:28;;;;;;;7.35;1.75;;;;;;;;;;5071776;28;20009;-72
2023/08/07 12:16:54;;;;;;;5.13;1.63;;;;;;;;;;5071708;28;20504;-72
2023/08/07 12:19:19;;;;;;;6.35;1.67;;;;;;;;;;5071759;28;20020;-72
2023/08/07 12:21:45;;;;;;;9.13;1.80;;;;;;;;;;5071850;28;20032;-72
2023/08/07 12:24:10;;;;;;;7.43;2.13;;;;;;;;;;5071787;28;20146;-72
2023/08/07 12:26:36;;;;;;;6.03;1.58;;;;;;;;;;5071975;28;20074;-72
2023/08/07 12:29:01;;;;;;;5.32;1.50;;;;;;;;;;5072036;28;20018;-72
2023/08/07 12:31:26;;;;;;;5.88;1.45;;;;;;;;;;5072105;28;20096;-71
2023/08/07 12:33:51;;;;;;;9.25;1.80;;;;;;;;;;5071647;28;20020;-72
2023/08/07 12:36:17;;;;;;;10.20;2.08;;;;;;;;;;5071857;28;20023;-71
2023/08/07 12:38:42;;;;;;;7.60;1.63;;;;;;;;;;5071913;28;20124;-72
2023/08/07 12:41:07;;;;;;;9.88;2.10;;;;;;;;;;5071593;28;20486;-72
2023/08/07 12:43:32;;;;;;;6.18;1.63;;;;;;;;;;5071858;28;20483;-72
2023/08/07 12:45:58;;;;;;;8.50;1.65;;;;;;;;;;5071448;28;20399;-72
2023/08/07 12:48:26;;;;;;;8.95;2.03;;;;;;;;;;5071532;28;20016;-73
2023/08/07 12:50:51;;;;;;;10.07;2.20;;;;;;;;;;5071585;28;20059;-72
2023/08/07 12:53:16;;;;;;;9.02;1.80;;;;;;;;;;5071525;28;20048;-72
2023/08/07 12:55:41;;;;;;;9.68;2.35;;;;;;;;;;5072653;28;20032;-72
2023/08/07 12:58:07;;;;;;;5.88;1.75;;;;;;;;;;5071515;28;20024;-72
2023/08/07 13:00:32;;;;;;;10.05;1.80;;;;;;;;;;5073385;28;20016;-72
2023/08/07 13:02:58;;;;;;;8.43;1.90;;;;;;;;;;5075552;28;20021;-72
2023/08/07 13:05:23;;;;;;;5.13;1.50;;;;;;;;;;5075190;28;20067;-72
2023/08/07 13:07:49;;;;;;;7.45;1.80;;;;;;;;;;5075337;28;20052;-72
2023/08/07 13:10:16;;;;;;;7.45;1.50;;;;;;;;;;5075475;28;20439;-72
2023/08/07 13:12:42;;;;;;;7.30;1.52;;;;;;;;;;5076845;28;20028;-72
2023/08/07 13:15:09;;;;;;;8.40;1.60;;;;;;;;;;5076581;28;20020;-71
2023/08/07 13:17:35;;;;;;;8.25;1.80;;;;;;;;;;5075233;28;20023;-72
2023/08/07 13:20:00;;;;;;;8.07;1.48;;;;;;;;;;5075075;28;20095;-71
2023/08/07 13:22:26;;;;;;;7.30;1.70;;;;;;;;;;5075152;28;20373;-72
2023/08/07 13:24:52;;;;;;;6.75;1.80;;;;;;;;;;5074847;28;20386;-71
2023/08/07 13:27:17;;;;;;;5.20;1.55;;;;;;;;;;5075146;28;20024;-72
2023/08/07 13:29:42;;;;;;;8.77;2.03;;;;;;;;;;5074902;28;20028;-72
2023/08/07 13:32:10;;;;;;;3.90;1.38;;;;;;;;;;5074889;28;20016;-72
2023/08/07 13:34:36;;;;;;;7.15;1.60;;;;;;;;;;5074876;28;20016;-72
2023/08/07 13:37:02;;;;;;;8.38;1.73;;;;;;;;;;5075094;28;20020;-72
2023/08/07 13:39:27;;;;;;;6.35;1.70;;;;;;;;;;5074722;28;20028;-72
2023/08/07 13:41:53;;;;;;;8.55;1.60;;;;;;;;;;5074732;28;20040;-72
2023/08/07 13:44:18;;;;;;;6.32;1.40;;;;;;;;;;5074747;28;20024;-72
2023/08/07 13:46:44;;;;;;;5.32;1.42;;;;;;;;;;5076157;28;20016;-73
2023/08/07 13:49:09;;;;;;;4.15;1.20;;;;;;;;;;5074778;28;20396;-72
2023/08/07 13:51:35;;;;;;;5.90;1.20;;;;;;;;;;5074667;28;20021;-72
2023/08/07 13:54:00;;;;;;;5.20;1.05;;;;;;;;;;5074727;28;20030;-72
2023/08/07 13:56:25;;;;;;;5.25;1.30;;;;;;;;;;5074678;28;20017;-72
2023/08/07 13:58:50;;;;;;;6.60;1.00;;;;;;;;;;5074384;28;20050;-72
2023/08/07 14:01:16;;;;;;;9.55;1.33;;;;;;;;;;5074703;28;20083;-73
2023/08/07 14:03:41;;;;;;;3.72;1.05;;;;;;;;;;5074025;28;20009;-72
2023/08/07 14:06:06;;;;;;;4.05;1.38;;;;;;;;;;5074728;28;20070;-72
2023/08/07 14:08:32;;;;;;;3.15;0.82;;;;;;;;;;5072688;28;20017;-67
2023/08/07 14:10:58;;;;;;;5.18;1.23;;;;;;;;;;5074047;28;20028;-68
2023/08/07 14:13:23;;;;;;;3.70;1.15;;;;;;;;;;5073309;28;20085;-68
2023/08/07 14:15:48;;;;;;;4.03;1.05;;;;;;;;;;5074038;28;20078;-68
2023/08/07 14:18:15;;;;;;;1.92;0.73;;;;;;;;;;5073923;28;20130;-68
2023/08/07 14:20:40;;;;;;;4.32;1.10;;;;;;;;;;5073792;28;20095;-67
2023/08/07 14:23:06;;;;;;;3.95;0.90;;;;;;;;;;5074437;28;20549;-67
2023/08/07 14:25:31;;;;;;;4.28;1.40;;;;;;;;;;5073897;28;20021;-67
2023/08/07 14:27:56;;;;;;;3.35;1.00;;;;;;;;;;5073994;28;20495;-68
2023/08/07 14:30:21;;;;;;;3.75;0.90;;;;;;;;;;5073938;28;20477;-68